ADDS METAR Data INFO
IDs: Format: Raw Decoded Include TAF

Data at: 2231 UTC 22 Aug 2017

KRBO 222215Z AUTO 12014G19KT 10SM CLR 35/19 A2997 RMK AO2 LTG DSNT N T03500191
KRBO 222155Z AUTO 14013G16KT 10SM CLR 36/19 A2997 RMK AO2 LTG DSNT N T03560194
KRBO 222135Z AUTO 12011G18KT 10SM CLR 36/20 A2998 RMK AO2 T03560195
KRBO 222115Z AUTO 11011G18KT 10SM CLR 35/20 A2998 RMK AO2 T03530200
KRBO 222055Z AUTO 10013G21KT 10SM SCT050 35/20 A2999 RMK AO2 T03510200
KRBO 222035Z AUTO 13012G19KT 10SM SCT055 36/19 A2999 RMK AO2 T03600194
KRBO 222015Z AUTO 11013G17KT 10SM CLR 36/21 A3000 RMK AO2 T03550205
KRBO 221955Z AUTO 09015G20KT 10SM SCT050 35/21 A3001 RMK AO2 T03540205
KRBO 221935Z AUTO 11013G20KT 070V130 10SM SCT046 SCT055 SCT065 35/21 A3002 RMK AO2 T03510214
KRBO 221915Z AUTO 09014G19KT 10SM SCT046 BKN055 BKN065 34/22 A3002 RMK AO2 T03400216
KRBO 221855Z AUTO 10009G16KT 10SM BKN045 BKN060 BKN070 34/21 A3003 RMK AO2 T03350211
KRBO 221835Z AUTO 10010G14KT 10SM SCT045 BKN050 BKN075 34/22 A3003 RMK AO2 T03370217
KRBO 221815Z AUTO 09008KT 10SM SCT060 SCT070 BKN095 33/22 A3004 RMK AO2 T03310218
KRBO 221755Z AUTO 11008KT 10SM SCT060 SCT080 34/22 A3005 RMK AO2 T03400224 10342 20249
KRBO 221735Z AUTO 08008KT 10SM SCT046 SCT060 SCT090 33/22 A3005 RMK AO2 T03320222
KRBO 221715Z AUTO 09009KT 10SM SCT090 32/23 A3005 RMK AO2 T03160225
KRBO 221655Z AUTO 08013G16KT 10SM SCT039 SCT060 SCT075 33/22 A3005 RMK AO2 T03270217
KRBO 221635Z AUTO 08009KT 10SM SCT041 BKN060 BKN080 32/22 A3005 RMK AO2 T03230219
KRBO 221615Z AUTO 00000KT 10SM SCT039 SCT046 BKN065 32/21 A3005 RMK AO2 T03230212
KRBO 221555Z AUTO 11004KT 10SM SCT035 SCT041 BKN050 32/21 A3005 RMK AO2 T03170214
KRBO 221535Z AUTO 14004KT 10SM SCT033 SCT039 31/22 A3005 RMK AO2 T03130219
KRBO 221515Z AUTO 09004KT 10SM SCT033 SCT039 32/22 A3004 RMK AO2 T03160222
KRBO 221455Z AUTO 11004KT 10SM CLR 31/23 A3004 RMK AO2 T03090226
KRBO 221435Z AUTO 11003KT 10SM CLR 31/23 A3003 RMK AO2 T03070228
KRBO 221415Z AUTO 17003KT 10SM CLR 30/23 A3002 RMK AO2 T03000231
KRBO 221355Z AUTO 16003KT 10SM CLR 29/24 A3002 RMK AO2 T02920237
KRBO 221335Z AUTO 12003KT 10SM CLR 28/24 A3002 RMK AO2 T02840244
KRBO 221315Z AUTO 11003KT 10SM CLR 28/24 A3002 RMK AO2 T02780242
KRBO 221255Z AUTO 00000KT 10SM CLR 27/24 A3002 RMK AO2 T02670236
KRBO 221235Z AUTO 09003KT 10SM CLR 25/25 A3001 RMK AO2 T02540254
KRBO 221215Z AUTO 00000KT 10SM CLR 25/25 A3001 RMK AO2 T02510251
KRBO 221155Z AUTO 00000KT 10SM CLR 25/25 A3000 RMK AO2 T02500250 10282 20250
KRBO 221135Z AUTO 00000KT 10SM CLR 26/26 A3000 RMK AO2 T02550255
KRBO 221115Z AUTO 00000KT 10SM CLR 26/25 A3000 RMK AO2 T02550250
KRBO 221055Z AUTO 00000KT 10SM CLR 26/24 A3000 RMK AO2 T02560236
KRBO 221035Z AUTO 00000KT 10SM CLR 26/24 A3000 RMK AO2 T02570235
KRBO 221015Z AUTO 00000KT 10SM CLR 26/23 A3000 RMK AO2 T02600233
KRBO 220955Z AUTO 00000KT 10SM CLR 26/23 A3001 RMK AO2 T02590233
KRBO 220935Z AUTO 00000KT 10SM CLR 26/23 A3002 RMK AO2 T02600230
KRBO 220915Z AUTO 15003KT 10SM CLR 27/24 A3002 RMK AO2 T02650240
KRBO 220855Z AUTO 16003KT 10SM SCT041 SCT049 27/24 A3002 RMK AO2 T02660236
KRBO 220835Z AUTO 13003KT 10SM RA SCT019 SCT027 BKN047 27/24 A3002 RMK AO2 T02690236
KRBO 220815Z AUTO 00000KT 10SM SCT023 SCT029 27/23 A3002 RMK AO2 T02670232
KRBO 220755Z AUTO 14003KT 10SM SCT023 SCT029 27/24 A3002 RMK AO2 T02700235
KRBO 220735Z AUTO 14003KT 10SM SCT027 SCT032 27/24 A3003 RMK AO2 T02710235
KRBO 220715Z AUTO 00000KT 10SM SCT027 27/24 A3004 RMK AO2 T02730236
KRBO 220655Z AUTO 16004KT 10SM CLR 28/24 A3004 RMK AO2 T02750235
KRBO 220635Z AUTO 14004KT 10SM CLR 28/24 A3005 RMK AO2 T02760235
KRBO 220615Z AUTO 15004KT 10SM CLR 28/24 A3005 RMK AO2 T02800238
KRBO 220555Z AUTO 15005KT 10SM CLR 28/24 A3006 RMK AO2 T02830238 10329 20283 403610260
KRBO 220535Z AUTO 14006KT 10SM CLR 29/24 A3007 RMK AO2 T02850238
KRBO 220515Z AUTO 14007KT 10SM CLR 29/24 A3006 RMK AO2 T02870237
KRBO 220455Z AUTO 14006KT 10SM CLR 29/24 A3006 RMK AO2 T02870238
KRBO 220435Z AUTO 13007KT 10SM CLR 29/24 A3006 RMK AO2 T02880240
KRBO 220415Z AUTO 12009KT 10SM CLR 29/24 A3006 RMK AO2 T02900238
KRBO 220355Z AUTO 13010KT 10SM CLR 29/24 A3006 RMK AO2 T02910239
KRBO 220335Z AUTO 13013KT 10SM CLR 29/24 A3005 RMK AO2 T02920236
KRBO 220315Z AUTO 13009KT 10SM CLR 29/24 A3004 RMK AO2 T02920235
KRBO 220255Z AUTO 12010KT 10SM CLR 30/24 A3003 RMK AO2 T02950235
KRBO 220235Z AUTO 12012KT 10SM CLR 30/24 A3003 RMK AO2 T02960235
KRBO 220215Z AUTO 12010KT 10SM CLR 30/24 A3002 RMK AO2 T02970236
KRBO 220155Z AUTO 12013G18KT 10SM CLR 30/23 A3001 RMK AO2 T03000229
KRBO 220135Z AUTO 12013KT 10SM CLR 30/23 A3001 RMK AO2 T03020225
KRBO 220115Z AUTO 12012KT 10SM CLR 31/22 A3001 RMK AO2 T03060221
KRBO 220055Z AUTO 12013KT 10SM CLR 31/22 A3000 RMK AO2 T03100222
KRBO 220035Z AUTO 11013KT 10SM CLR 32/22 A2999 RMK AO2 T03170219
KRBO 220015Z AUTO 12014G17KT 10SM CLR 32/22 A2999 RMK AO2 T03240218
KRBO 212355Z AUTO 11014G18KT 10SM CLR 33/21 A2999 RMK AO2 T03300214 10361 20330
KRBO 212335Z AUTO 11012KT 10SM CLR 34/21 A2998 RMK AO2 T03360213
KRBO 212315Z AUTO 11012G16KT 10SM SCT042 SCT049 34/21 A2998 RMK AO2 T03360211
KRBO 212255Z AUTO 10015G20KT 10SM SCT043 SCT049 34/21 A2998 RMK AO2 T03420214
KRBO 212235Z AUTO 11013G17KT 10SM CLR 35/21 A2998 RMK AO2 T03460211
KRBO 212215Z AUTO 10010G16KT 10SM SCT045 35/21 A2999 RMK AO2 T03520214
KRBO 212155Z AUTO 10011G16KT 10SM SCT045 35/21 A2999 RMK AO2 T03520211
KRBO 212135Z AUTO 10011G19KT 10SM SCT047 SCT055 35/21 A2999 RMK AO2 T03530213
KRBO 212115Z AUTO 09011G16KT 060V120 10SM SCT049 35/20 A2999 RMK AO2 T03500203
KRBO 212055Z AUTO 09009G14KT 10SM SCT049 36/20 A2999 RMK AO2 T03560201
KRBO 212035Z AUTO 13010G16KT 10SM SCT049 36/20 A3000 RMK AO2 T03590201
KRBO 212015Z AUTO 11010G19KT 10SM CLR 35/21 A3000 RMK AO2 T03540208
KRBO 211955Z AUTO 09012G16KT 10SM SCT041 SCT047 36/21 A3001 RMK AO2 T03570208
KRBO 211935Z AUTO 10011G17KT 10SM SCT037 SCT045 35/22 A3001 RMK AO2 T03480219
KRBO 211915Z AUTO 10011G18KT 10SM CLR 34/23 A3001 RMK AO2 T03420229
KRBO 211855Z AUTO 11012G17KT 10SM SCT044 SCT050 34/23 A3002 RMK AO2 T03410225
KRBO 211835Z AUTO 10012KT 10SM SCT044 34/22 A3002 RMK AO2 T03390221
KRBO 211815Z AUTO 10013G17KT 10SM SCT049 SCT065 34/21 A3002 RMK AO2 T03400211
KRBO 211755Z AUTO 13009G14KT 10SM BKN049 BKN060 BKN075 34/21 A3002 RMK AO2 T03400208 10355 20262
KRBO 211735Z AUTO 12008KT 090V160 10SM SCT047 SCT060 BKN080 35/21 A3003 RMK AO2 T03490209
KRBO 211715Z AUTO 10011G14KT 10SM SCT047 SCT080 SCT090 35/21 A3003 RMK AO2 T03500213
KRBO 211655Z AUTO 00000KT 10SM SCT080 BKN090 34/21 A3004 RMK AO2 T03390214
KRBO 211635Z AUTO 09007KT 10SM SCT080 SCT090 34/22 A3004 RMK AO2 T03360217
KRBO 211615Z AUTO 08003KT 10SM SCT039 SCT045 34/22 A3005 RMK AO2 T03380222
KRBO 211555Z AUTO 11003KT 10SM SCT070 33/22 A3004 RMK AO2 T03270220
KRBO 211535Z AUTO 13005KT 10SM SCT032 SCT040 BKN070 33/22 A3004 RMK AO2 T03260224
KRBO 211515Z AUTO 11007KT 10SM SCT032 SCT040 32/23 A3004 RMK AO2 T03220230
KRBO 211455Z AUTO 11005KT 10SM SCT025 SCT032 32/23 A3004 RMK AO2 T03220230
KRBO 211435Z AUTO 14003KT 10SM SCT018 SCT023 SCT030 31/24 A3004 RMK AO2 T03050242
KRBO 211415Z AUTO 12005KT 10SM SCT019 SCT024 30/24 A3003 RMK AO2 T03040243
KRBO 211355Z AUTO 15003KT 10SM CLR 30/25 A3003 RMK AO2 T03010250
KRBO 211335Z AUTO 10004KT 10SM CLR 29/26 A3002 RMK AO2 T02920255
KRBO 211315Z AUTO 00000KT 10SM CLR 29/26 A3002 RMK AO2 T02860255
KRBO 211255Z AUTO 00000KT 10SM CLR 28/25 A3002 RMK AO2 T02750250
KRBO 211235Z AUTO 09003KT 10SM CLR 26/26 A3002 RMK AO2 T02630263
KRBO 211215Z AUTO 00000KT 10SM SCT022 26/26 A3002 RMK AO2 T02640264
KRBO 211155Z AUTO 09003KT 10SM CLR 26/26 A3002 RMK AO2 T02640264 10278 20260
KRBO 211135Z AUTO 00000KT 10SM CLR 26/26 A3001 RMK AO2 T02610259
KRBO 211115Z AUTO 00000KT 10SM SCT019 SCT032 26/26 A3002 RMK AO2 T02630256
KRBO 211055Z AUTO 00000KT 10SM SCT020 SCT033 27/26 A3001 RMK AO2 LTG DSNT NW T02650264
KRBO 211035Z AUTO 10004KT 10SM SCT020 26/25 A3001 RMK AO2 T02610252